Nantucket Memorial Airport Nantucket US
ICAO: KACK
IATA: ACK
Category: Medium
Scheduled Services: Yes

Elevation: 47 ft
TransAlt. 18000 ft.

Airport Communications:
CAPE APP/DEP:126.1
ATIS:127.5
CLNC DEL:119.375
CTAF:118.3
GND:121.7
BRIDGEPORT RDO:116.2
TWR:118.3
UNICOM:122.95

KACK Zoom In..

If you have problems with the map follow the link
https://www.worldairports.se/pages/airport.php?
ICAO=KACK

Runways:

(A) RW 06 length 6303 ft width 150 ft
ILS 109.10 / hdg 61

(B) RW 12 length 2696 ft width 50 ft
---- / hdg 123

(C) RW 15 length 4500 ft width 100 ft
---- / hdg 151

(D) RW 24 length 6303 ft width 150 ft
ILS 109.10 / hdg 241

(E) RW 30 length 2696 ft width 50 ft
---- / hdg 303

(F) RW 33 length 4500 ft width 100 ft
---- / hdg 331

Location; KACK
Day. 16 / Time. 11.53 Zulu
* Altimeter: 29.41
* Temperature: 10° c. 50°f.
* Wind from: 090° Speed 19 kn with Gusts up to 28 kn.
Dewpoint: 08° c.
Visibility: 6 Statute Miles.
Clouds: Overcast 800 ft.
Conditions: Mist.

KACK 161153Z 09019G28KT 6SM BR OVC008 10/08 A2941 RMK AO2 PK WND 09040/1100 SLP960 60029 70116 T01000083 10100 20044 56086


Wind From 090°
Speed 19 kn.

 
 
jpsmedia.com for Web Design worldairports.se 2018   terms of use